createdAt,value
2017-09-11T00:00:48.079Z,10.7
2017-09-11T00:02:06.748Z,10.7
2017-09-11T00:03:25.458Z,10.6
2017-09-11T00:04:44.169Z,10.7
2017-09-11T00:06:02.838Z,10.8
2017-09-11T00:07:21.496Z,10.9
2017-09-11T00:08:40.158Z,11.2
2017-09-11T00:09:58.875Z,11.2
2017-09-11T00:11:17.568Z,11
2017-09-11T00:12:36.231Z,11
2017-09-11T00:13:54.922Z,11.1
2017-09-11T00:15:13.649Z,11.2
2017-09-11T00:16:32.310Z,11.3
2017-09-11T00:17:51.026Z,11.2
2017-09-11T00:19:09.692Z,11.1
2017-09-11T00:20:28.400Z,11
2017-09-11T00:21:47.115Z,10.9
2017-09-11T00:23:05.790Z,10.9
2017-09-11T00:24:24.475Z,10.9
2017-09-11T00:25:43.157Z,10.9
2017-09-11T00:27:01.859Z,10.9
2017-09-11T00:28:20.569Z,10.9
2017-09-11T00:29:39.236Z,11
2017-09-11T00:30:57.955Z,11
2017-09-11T00:32:16.618Z,10.8
2017-09-11T00:33:35.296Z,10.7
2017-09-11T00:34:53.995Z,10.8
2017-09-11T00:36:12.714Z,10.8
2017-09-11T00:37:31.376Z,10.7
2017-09-11T00:38:50.037Z,10.7
2017-09-11T00:40:08.736Z,10.7
2017-09-11T00:41:27.422Z,10.7
2017-09-11T00:42:46.088Z,10.7
2017-09-11T00:44:04.758Z,10.7
2017-09-11T00:45:23.462Z,10.8
2017-09-11T00:46:42.138Z,10.7
2017-09-11T00:48:00.863Z,10.6
2017-09-11T00:49:19.529Z,10.6
2017-09-11T00:50:38.201Z,10.6
2017-09-11T00:51:56.944Z,10.5
2017-09-11T00:53:15.608Z,10.4
2017-09-11T00:54:34.292Z,10.5
2017-09-11T00:55:52.959Z,10.4
2017-09-11T00:57:11.723Z,10.4
2017-09-11T00:58:30.393Z,10.4
2017-09-11T00:59:49.059Z,10.4
2017-09-11T01:01:07.725Z,10.4
2017-09-11T01:02:26.446Z,10.3
2017-09-11T01:03:45.119Z,10.2
2017-09-11T01:05:03.792Z,10.2
2017-09-11T01:06:22.454Z,10.1
2017-09-11T01:07:41.125Z,10.1
2017-09-11T01:08:59.844Z,10.2
2017-09-11T01:10:18.559Z,10.2
2017-09-11T01:11:37.226Z,10.1
2017-09-11T01:12:55.903Z,10.1
2017-09-11T01:14:14.568Z,10.2
2017-09-11T01:15:33.275Z,10.4
2017-09-11T01:16:51.940Z,10.5
2017-09-11T01:18:10.626Z,10.4
2017-09-11T01:19:29.336Z,10.4
2017-09-11T01:20:48.011Z,10.4
2017-09-11T01:22:06.681Z,10.3
2017-09-11T01:23:25.360Z,10.3
2017-09-11T01:24:44.030Z,10.3
2017-09-11T01:26:02.744Z,10.3
2017-09-11T01:27:21.418Z,10.3
2017-09-11T01:28:40.155Z,10.2
2017-09-11T01:29:58.821Z,10.1
2017-09-11T01:31:17.493Z,10.1
2017-09-11T01:32:36.160Z,10.1
2017-09-11T01:33:54.837Z,10
2017-09-11T01:35:13.528Z,10
2017-09-11T01:36:32.253Z,10.1
2017-09-11T01:37:50.919Z,10
2017-09-11T01:39:09.621Z,9.9
2017-09-11T01:40:28.319Z,9.9
2017-09-11T01:41:46.999Z,9.9
2017-09-11T01:43:05.702Z,9.9
2017-09-11T01:44:24.374Z,10
2017-09-11T01:45:43.052Z,10.1
2017-09-11T01:47:01.789Z,10.1
2017-09-11T01:48:20.469Z,10.2
2017-09-11T01:49:39.161Z,10.3
2017-09-11T01:50:57.825Z,10.4
2017-09-11T01:52:16.489Z,10.3
2017-09-11T01:53:35.175Z,10.3
2017-09-11T01:54:53.851Z,10.3
2017-09-11T01:56:12.575Z,10.2
2017-09-11T01:57:31.241Z,10.2
2017-09-11T01:58:49.926Z,10.2
2017-09-11T02:00:08.618Z,10.3
2017-09-11T02:01:27.332Z,10.4
2017-09-11T02:02:46.005Z,10.6
2017-09-11T02:04:04.667Z,10.7
2017-09-11T02:05:23.366Z,10.6
2017-09-11T02:06:42.060Z,10.6
2017-09-11T02:08:00.778Z,10.7
2017-09-11T02:09:19.450Z,10.6
2017-09-11T02:10:38.154Z,10.6
2017-09-11T02:11:56.820Z,10.5
2017-09-11T02:13:15.521Z,10.6
2017-09-11T02:14:34.181Z,10.6
2017-09-11T02:15:52.857Z,10.5
2017-09-11T02:17:11.578Z,10.6
2017-09-11T02:18:30.243Z,10.6
2017-09-11T02:19:48.904Z,10.6
2017-09-11T02:21:07.623Z,10.7
2017-09-11T02:22:26.285Z,10.6
2017-09-11T02:23:44.945Z,10.6
2017-09-11T02:25:03.617Z,10.6
2017-09-11T02:26:22.303Z,10.6
2017-09-11T02:27:40.995Z,10.6
2017-09-11T02:28:59.712Z,10.5
2017-09-11T02:30:18.390Z,10.4
2017-09-11T02:31:37.127Z,10.4
2017-09-11T02:32:55.798Z,10.4
2017-09-11T02:34:14.490Z,10.5
2017-09-11T02:35:33.188Z,10.7
2017-09-11T02:36:51.864Z,10.7
2017-09-11T02:38:10.533Z,10.7
2017-09-11T02:39:29.201Z,10.7
2017-09-11T02:40:47.925Z,10.7
2017-09-11T02:42:06.654Z,10.8
2017-09-11T02:43:25.354Z,10.8
2017-09-11T02:44:44.013Z,10.8
2017-09-11T02:46:02.700Z,10.7
2017-09-11T02:47:21.426Z,10.7
2017-09-11T02:48:40.139Z,10.7
2017-09-11T02:49:58.853Z,10.8
2017-09-11T02:51:17.519Z,10.7
2017-09-11T02:52:36.238Z,10.7
2017-09-11T02:53:54.912Z,10.6
2017-09-11T02:55:13.631Z,10.6
2017-09-11T02:56:32.296Z,10.7
2017-09-11T02:57:50.991Z,10.7
2017-09-11T02:59:09.700Z,10.7
2017-09-11T03:00:28.371Z,10.7
2017-09-11T03:01:47.030Z,10.7
2017-09-11T03:03:05.713Z,10.6
2017-09-11T03:04:24.403Z,10.5
2017-09-11T03:05:43.147Z,10.5
2017-09-11T03:07:01.811Z,10.6
2017-09-11T03:08:20.484Z,10.7
2017-09-11T03:09:39.151Z,10.7
2017-09-11T03:10:57.829Z,10.6
2017-09-11T03:12:16.491Z,10.6
2017-09-11T03:13:35.166Z,10.6
2017-09-11T03:14:53.833Z,10.6
2017-09-11T03:16:12.498Z,10.6
2017-09-11T03:17:31.183Z,10.6
2017-09-11T03:18:49.867Z,10.6
2017-09-11T03:20:08.542Z,10.6
2017-09-11T03:21:27.207Z,10.5
2017-09-11T03:22:45.874Z,10.6
2017-09-11T03:24:04.543Z,10.6
2017-09-11T03:25:23.267Z,10.6
2017-09-11T03:26:41.929Z,10.6
2017-09-11T03:28:00.589Z,10.6
2017-09-11T03:29:19.324Z,10.6
2017-09-11T03:30:38.022Z,10.6
2017-09-11T03:31:56.735Z,10.6
2017-09-11T03:33:15.403Z,10.6
2017-09-11T03:34:34.083Z,10.5
2017-09-11T03:35:52.770Z,10.5
2017-09-11T03:37:11.481Z,10.6
2017-09-11T03:38:30.197Z,10.6
2017-09-11T03:39:48.897Z,10.6
2017-09-11T03:41:07.561Z,10.6
2017-09-11T03:42:26.282Z,10.6
2017-09-11T03:43:44.949Z,10.6
2017-09-11T03:45:03.640Z,10.6
2017-09-11T03:46:22.299Z,10.6
2017-09-11T03:47:40.962Z,10.6
2017-09-11T03:48:59.630Z,10.6
2017-09-11T03:50:18.309Z,10.6
2017-09-11T03:51:36.974Z,10.6
2017-09-11T03:52:55.643Z,10.6
2017-09-11T03:54:14.309Z,10.6
2017-09-11T03:55:32.990Z,10.6
2017-09-11T03:56:51.703Z,10.6
2017-09-11T03:58:10.403Z,10.6
2017-09-11T03:59:29.076Z,10.6
2017-09-11T04:00:47.781Z,10.7
2017-09-11T04:02:06.478Z,10.7
2017-09-11T04:03:25.175Z,10.7
2017-09-11T04:04:43.838Z,10.7
2017-09-11T04:06:02.560Z,10.7
2017-09-11T04:07:21.234Z,10.7
2017-09-11T04:08:39.897Z,10.7
2017-09-11T04:09:58.584Z,10.7
2017-09-11T04:11:17.258Z,10.7
2017-09-11T04:12:35.965Z,10.7
2017-09-11T04:13:54.655Z,10.7
2017-09-11T04:15:13.357Z,10.7
2017-09-11T04:16:32.035Z,10.7
2017-09-11T04:17:50.700Z,10.7
2017-09-11T04:19:09.379Z,10.7
2017-09-11T04:20:28.091Z,10.7
2017-09-11T04:21:46.759Z,10.7
2017-09-11T04:23:05.452Z,10.7
2017-09-11T04:24:24.124Z,10.7
2017-09-11T04:25:42.831Z,10.6
2017-09-11T04:27:01.504Z,10.7
2017-09-11T04:28:20.180Z,10.6
2017-09-11T04:29:38.852Z,10.6
2017-09-11T04:30:57.587Z,10.6
2017-09-11T04:32:16.260Z,10.6
2017-09-11T04:33:34.924Z,10.6
2017-09-11T04:34:53.593Z,10.7
2017-09-11T04:36:12.269Z,10.7
2017-09-11T04:37:31.009Z,10.7
2017-09-11T04:38:49.727Z,10.6
2017-09-11T04:40:08.387Z,10.7
2017-09-11T04:41:27.070Z,10.6
2017-09-11T04:42:45.746Z,10.6
2017-09-11T04:44:04.416Z,10.7
2017-09-11T04:45:23.084Z,10.7
2017-09-11T04:46:41.745Z,10.7
2017-09-11T04:48:00.473Z,10.6
2017-09-11T04:49:19.133Z,10.7
2017-09-11T04:50:37.804Z,10.7
2017-09-11T04:51:56.475Z,10.8
2017-09-11T04:53:15.149Z,10.7
2017-09-11T04:54:33.838Z,10.7
2017-09-11T04:55:52.544Z,10.7
2017-09-11T04:57:11.264Z,10.7
2017-09-11T04:58:29.942Z,10.8
2017-09-11T04:59:48.605Z,10.9
2017-09-11T05:01:07.276Z,10.9
2017-09-11T05:02:25.972Z,10.9
2017-09-11T05:03:44.651Z,11
2017-09-11T05:05:03.325Z,11
2017-09-11T05:06:21.993Z,11
2017-09-11T05:07:40.680Z,11
2017-09-11T05:08:59.356Z,11.1
2017-09-11T05:10:18.024Z,11.1
2017-09-11T05:11:36.738Z,11.2
2017-09-11T05:12:55.440Z,11.3
2017-09-11T05:14:14.131Z,11.3
2017-09-11T05:15:32.838Z,11.3
2017-09-11T05:16:51.547Z,11.4
2017-09-11T05:18:10.254Z,11.4
2017-09-11T05:19:28.929Z,11.4
2017-09-11T05:20:47.651Z,11.4
2017-09-11T05:22:06.319Z,11.4
2017-09-11T05:23:24.977Z,11.4
2017-09-11T05:24:43.649Z,11.4
2017-09-11T05:26:02.351Z,11.4
2017-09-11T05:27:21.067Z,11.5
2017-09-11T05:28:39.761Z,11.5
2017-09-11T05:29:58.471Z,11.5
2017-09-11T05:31:17.129Z,11.5
2017-09-11T05:32:35.875Z,11.5
2017-09-11T05:33:54.595Z,11.5
2017-09-11T05:35:13.275Z,11.5
2017-09-11T05:36:31.938Z,11.5
2017-09-11T05:37:50.662Z,11.5
2017-09-11T05:39:09.333Z,11.5
2017-09-11T05:40:28.063Z,11.4
2017-09-11T05:41:46.736Z,11.5
2017-09-11T05:43:05.442Z,11.5
2017-09-11T05:44:24.106Z,11.6
2017-09-11T05:45:42.778Z,11.6
2017-09-11T05:47:01.445Z,11.5
2017-09-11T05:48:20.110Z,11.5
2017-09-11T05:49:38.823Z,11.5
2017-09-11T05:50:57.516Z,11.5
2017-09-11T05:52:16.181Z,11.5
2017-09-11T05:53:34.844Z,11.5
2017-09-11T05:54:53.513Z,11.5
2017-09-11T05:56:12.271Z,11.5
2017-09-11T05:57:30.941Z,11.5
2017-09-11T05:58:49.631Z,11.5
2017-09-11T06:00:08.350Z,11.5
2017-09-11T06:01:27.029Z,11.5
2017-09-11T06:02:45.741Z,11.5
2017-09-11T06:04:04.448Z,11.5
2017-09-11T06:05:23.112Z,11.5
2017-09-11T06:06:41.787Z,11.5
2017-09-11T06:08:00.504Z,11.5
2017-09-11T06:09:19.169Z,11.5
2017-09-11T06:10:37.879Z,11.5
2017-09-11T06:11:56.601Z,11.5
2017-09-11T06:13:15.268Z,11.5
2017-09-11T06:14:33.934Z,11.6
2017-09-11T06:15:52.593Z,11.6
2017-09-11T06:17:11.289Z,11.6
2017-09-11T06:18:29.953Z,11.6
2017-09-11T06:19:48.618Z,11.6
2017-09-11T06:21:07.337Z,11.6
2017-09-11T06:22:26.014Z,11.7
2017-09-11T06:23:44.731Z,11.7
2017-09-11T06:25:03.441Z,11.7
2017-09-11T06:26:22.148Z,11.7
2017-09-11T06:27:40.825Z,11.7
2017-09-11T06:28:59.505Z,11.7
2017-09-11T06:30:18.207Z,11.7
2017-09-11T06:31:36.940Z,11.7
2017-09-11T06:32:55.632Z,11.7
2017-09-11T06:34:14.307Z,11.7
2017-09-11T06:35:32.966Z,11.7
2017-09-11T06:36:51.638Z,11.7
2017-09-11T06:38:10.325Z,11.7
2017-09-11T06:39:28.989Z,11.7
2017-09-11T06:40:47.658Z,11.7
2017-09-11T06:42:06.326Z,11.8
2017-09-11T06:43:25.006Z,11.8
2017-09-11T06:44:43.701Z,11.8
2017-09-11T06:46:02.360Z,11.8
2017-09-11T06:47:21.032Z,11.8
2017-09-11T06:48:39.709Z,11.8
2017-09-11T06:49:58.397Z,11.7
2017-09-11T06:51:17.092Z,11.7
2017-09-11T06:52:35.753Z,11.7
2017-09-11T06:53:54.436Z,11.7
2017-09-11T06:55:13.092Z,11.6
2017-09-11T06:56:31.804Z,11.6
2017-09-11T06:57:50.551Z,11.6
2017-09-11T06:59:09.249Z,11.6
2017-09-11T07:00:27.914Z,11.6
2017-09-11T07:01:46.582Z,11.7
2017-09-11T07:03:05.251Z,11.7
2017-09-11T07:04:23.919Z,11.7
2017-09-11T07:05:42.622Z,11.8
2017-09-11T07:07:01.339Z,11.8
2017-09-11T07:08:20.032Z,11.9
2017-09-11T07:09:38.720Z,11.9
2017-09-11T07:10:57.383Z,11.9
2017-09-11T07:12:16.093Z,11.9
2017-09-11T07:13:34.759Z,12
2017-09-11T07:14:53.431Z,12
2017-09-11T07:16:12.162Z,12
2017-09-11T07:17:30.850Z,12.1
2017-09-11T07:18:49.511Z,12.2
2017-09-11T07:20:08.194Z,12.2
2017-09-11T07:21:26.947Z,12.3
2017-09-11T07:22:45.644Z,12.4
2017-09-11T07:24:04.308Z,12.5
2017-09-11T07:25:22.987Z,12.5
2017-09-11T07:26:41.662Z,12.5
2017-09-11T07:28:00.409Z,12.5
2017-09-11T07:29:19.080Z,12.6
2017-09-11T07:30:37.781Z,12.6
2017-09-11T07:31:56.450Z,12.7
2017-09-11T07:33:15.169Z,12.7
2017-09-11T07:34:33.831Z,12.8
2017-09-11T07:35:52.572Z,12.9
2017-09-11T07:37:11.237Z,12.9
2017-09-11T07:38:29.898Z,12.9
2017-09-11T07:39:48.568Z,12.9
2017-09-11T07:41:07.251Z,12.9
2017-09-11T07:42:25.916Z,13
2017-09-11T07:43:44.639Z,13.1
2017-09-11T07:45:03.350Z,13.2
2017-09-11T07:46:22.066Z,13.2
2017-09-11T07:47:40.743Z,13.2
2017-09-11T07:48:59.414Z,13.2
2017-09-11T07:50:18.085Z,13.2
2017-09-11T07:51:36.804Z,13.2
2017-09-11T07:52:55.503Z,13.2
2017-09-11T07:54:14.226Z,13.2
2017-09-11T07:55:32.897Z,13.2
2017-09-11T07:56:51.588Z,13.2
2017-09-11T07:58:10.261Z,13.2
2017-09-11T07:59:28.928Z,13.3
2017-09-11T08:00:47.613Z,13.2
2017-09-11T08:02:06.293Z,13.2
2017-09-11T08:03:24.972Z,13.1
2017-09-11T08:04:43.635Z,13.1
2017-09-11T08:06:02.303Z,13.1
2017-09-11T08:07:20.974Z,13.1
2017-09-11T08:08:39.634Z,13.2
2017-09-11T08:09:58.298Z,13.1
2017-09-11T08:11:16.969Z,13.1
2017-09-11T08:12:35.671Z,13.2
2017-09-11T08:13:54.378Z,13.2
2017-09-11T08:15:13.096Z,13.2
2017-09-11T08:16:31.788Z,13.2
2017-09-11T08:17:50.514Z,13.2
2017-09-11T08:19:09.171Z,13.2
2017-09-11T08:20:27.893Z,13.2
2017-09-11T08:21:46.577Z,13.1
2017-09-11T08:23:05.256Z,13.3
2017-09-11T08:24:23.920Z,13.4
2017-09-11T08:25:42.583Z,13.4
2017-09-11T08:27:01.274Z,13.5
2017-09-11T08:28:19.948Z,13.5
2017-09-11T08:29:38.615Z,13.5
2017-09-11T08:30:57.282Z,13.6
2017-09-11T08:32:15.939Z,13.7
2017-09-11T08:33:34.630Z,13.8
2017-09-11T08:34:53.349Z,14.1
2017-09-11T08:36:12.070Z,14.1
2017-09-11T08:37:30.786Z,14.3
2017-09-11T08:38:49.459Z,14.2
2017-09-11T08:40:08.125Z,14.2
2017-09-11T08:41:26.835Z,14.3
2017-09-11T08:42:45.499Z,14.4
2017-09-11T08:44:04.177Z,14.5
2017-09-11T08:45:22.845Z,14.6
2017-09-11T08:46:41.532Z,14.8
2017-09-11T08:48:00.195Z,14.8
2017-09-11T08:49:18.887Z,14.8
2017-09-11T08:50:37.556Z,14.5
2017-09-11T08:51:56.268Z,14.4
2017-09-11T08:53:14.993Z,14.4
2017-09-11T08:54:33.711Z,14.3
2017-09-11T08:55:52.386Z,14.1
2017-09-11T08:57:11.049Z,14
2017-09-11T08:58:29.716Z,14.1
2017-09-11T08:59:48.389Z,13.9
2017-09-11T09:01:07.071Z,13.9
2017-09-11T09:02:25.738Z,13.8
2017-09-11T09:03:44.452Z,13.9
2017-09-11T09:05:03.137Z,13.8
2017-09-11T09:06:21.802Z,13.8
2017-09-11T09:07:40.461Z,14.3
2017-09-11T09:08:59.158Z,14.4
2017-09-11T09:10:17.848Z,14.4
2017-09-11T09:11:36.542Z,14.5
2017-09-11T09:12:55.226Z,14.8
2017-09-11T09:14:13.894Z,14.8
2017-09-11T09:15:32.622Z,14.8
2017-09-11T09:16:51.355Z,15
2017-09-11T09:18:10.073Z,14.9
2017-09-11T09:19:28.780Z,14.8
2017-09-11T09:20:47.453Z,15.1
2017-09-11T09:22:06.114Z,15.5
2017-09-11T09:23:24.857Z,15.7
2017-09-11T09:24:43.517Z,15.7
2017-09-11T09:26:02.196Z,15.3
2017-09-11T09:27:20.900Z,14.9
2017-09-11T09:28:39.565Z,14.8
2017-09-11T09:29:58.271Z,14.8
2017-09-11T09:31:16.938Z,15
2017-09-11T09:32:35.598Z,15.4
2017-09-11T09:33:54.264Z,15.7
2017-09-11T09:35:12.983Z,15.5
2017-09-11T09:36:31.713Z,15.4
2017-09-11T09:37:50.380Z,15.7
2017-09-11T09:39:09.087Z,15.5
2017-09-11T09:40:27.760Z,15.6
2017-09-11T09:41:46.470Z,15.4
2017-09-11T09:43:05.135Z,15.3
2017-09-11T09:44:23.801Z,15
2017-09-11T09:45:42.461Z,15.2
2017-09-11T09:47:01.147Z,15.1
2017-09-11T09:48:19.817Z,15.2
2017-09-11T09:49:38.484Z,15.4
2017-09-11T09:50:57.145Z,15.7
2017-09-11T09:52:15.844Z,16.2
2017-09-11T09:53:34.534Z,16.7
2017-09-11T09:54:53.224Z,17.3
2017-09-11T09:56:11.885Z,17.5
2017-09-11T09:57:30.611Z,17.1
2017-09-11T09:58:49.280Z,16.7
2017-09-11T10:00:07.954Z,17.1
2017-09-11T10:01:26.671Z,17.6
2017-09-11T10:02:45.358Z,17.9
2017-09-11T10:04:04.072Z,18
2017-09-11T10:05:22.736Z,18.1
2017-09-11T10:06:41.421Z,18.3
2017-09-11T10:08:00.092Z,18
2017-09-11T10:09:18.762Z,18.1
2017-09-11T10:10:37.485Z,18
2017-09-11T10:11:56.220Z,18.2
2017-09-11T10:13:14.899Z,18.1
2017-09-11T10:14:33.616Z,18.2
2017-09-11T10:15:52.290Z,18.3
2017-09-11T10:17:10.994Z,18
2017-09-11T10:18:29.727Z,18.1
2017-09-11T10:19:48.387Z,18.1
2017-09-11T10:21:07.054Z,18.1
2017-09-11T10:22:25.726Z,18
2017-09-11T10:23:44.408Z,18.2
2017-09-11T10:25:03.103Z,18.7
2017-09-11T10:26:21.765Z,19
2017-09-11T10:27:40.426Z,19.2
2017-09-11T10:28:59.113Z,19.1
2017-09-11T10:30:17.773Z,19.2
2017-09-11T10:31:36.489Z,19.1
2017-09-11T10:32:55.222Z,19.1
2017-09-11T10:34:13.897Z,18.9
2017-09-11T10:35:32.563Z,18.8
2017-09-11T10:36:51.259Z,18.6
2017-09-11T10:38:09.930Z,18.9
2017-09-11T10:39:28.608Z,19.3
2017-09-11T10:40:47.279Z,19.6
2017-09-11T10:42:05.968Z,19.4
2017-09-11T10:43:24.668Z,19.3
2017-09-11T10:44:43.380Z,19.4
2017-09-11T10:46:02.055Z,19.4
2017-09-11T10:47:20.725Z,19.1
2017-09-11T10:48:39.442Z,18.5
2017-09-11T10:49:58.182Z,18.1
2017-09-11T10:51:16.898Z,18
2017-09-11T10:52:35.569Z,17.7
2017-09-11T10:53:54.236Z,17.3
2017-09-11T10:55:12.901Z,17.3
2017-09-11T10:56:31.568Z,17.5
2017-09-11T10:57:50.253Z,17.5
2017-09-11T10:59:08.926Z,17.4
2017-09-11T11:00:27.607Z,17.2
2017-09-11T11:01:46.273Z,17.6
2017-09-11T11:03:04.934Z,17.7
2017-09-11T11:04:23.621Z,18.1
2017-09-11T11:05:42.332Z,18.9
2017-09-11T11:07:01.031Z,20.2
2017-09-11T11:08:19.690Z,20.6
2017-09-11T11:09:38.360Z,21
2017-09-11T11:10:57.083Z,21
2017-09-11T11:12:15.752Z,20.1
2017-09-11T11:13:34.498Z,19.7
2017-09-11T11:14:53.168Z,19.4
2017-09-11T11:16:11.843Z,19.1
2017-09-11T11:17:30.515Z,18.8
2017-09-11T11:18:49.176Z,19
2017-09-11T11:20:07.843Z,19.4
2017-09-11T11:21:26.524Z,19.2
2017-09-11T11:22:45.187Z,18.8
2017-09-11T11:24:03.882Z,19
2017-09-11T11:25:22.553Z,19.1
2017-09-11T11:26:41.257Z,19
2017-09-11T11:27:59.919Z,19.2
2017-09-11T11:29:18.581Z,19.1
2017-09-11T11:30:37.308Z,18.9
2017-09-11T11:31:56.009Z,19
2017-09-11T11:33:14.716Z,19.1
2017-09-11T11:34:33.393Z,19.5
2017-09-11T11:35:52.063Z,19.9
2017-09-11T11:37:10.811Z,19.6
2017-09-11T11:38:29.486Z,19.4
2017-09-11T11:39:48.201Z,20
2017-09-11T11:41:06.903Z,20.2
2017-09-11T11:42:25.601Z,20.3
2017-09-11T11:43:44.286Z,20.9
2017-09-11T11:45:02.972Z,21.7
2017-09-11T11:46:21.631Z,21.9
2017-09-11T11:47:40.298Z,21.7
2017-09-11T11:48:59.014Z,21.7
2017-09-11T11:50:17.676Z,21.1
2017-09-11T11:51:36.366Z,21.1
2017-09-11T11:52:55.047Z,20.7
2017-09-11T11:54:13.711Z,20
2017-09-11T11:55:32.373Z,19.8
2017-09-11T11:56:51.090Z,19
2017-09-11T11:58:09.827Z,18.5
2017-09-11T11:59:28.496Z,18.7
2017-09-11T12:00:47.207Z,18.9
2017-09-11T12:02:05.904Z,18.8
2017-09-11T12:03:24.568Z,18.7
2017-09-11T12:04:43.238Z,18.4
2017-09-11T12:06:01.915Z,18.1
2017-09-11T12:07:20.637Z,18.1
2017-09-11T12:08:39.313Z,18.1
2017-09-11T12:09:57.976Z,18.4
2017-09-11T12:11:16.639Z,17.9
2017-09-11T12:12:35.291Z,18.1
2017-09-11T12:13:53.972Z,18
2017-09-11T12:15:12.693Z,17.5
2017-09-11T12:16:31.419Z,17.1
2017-09-11T12:17:50.083Z,16.8
2017-09-11T12:19:08.787Z,16.5
2017-09-11T12:20:27.454Z,16.3
2017-09-11T12:21:46.123Z,16
2017-09-11T12:23:04.789Z,15.8
2017-09-11T12:24:23.467Z,15.7
2017-09-11T12:25:42.141Z,15.4
2017-09-11T12:27:00.841Z,15.5
2017-09-11T12:28:19.517Z,15.4
2017-09-11T12:29:38.189Z,15.2
2017-09-11T12:30:56.852Z,15.5
2017-09-11T12:32:15.532Z,15.4
2017-09-11T12:33:34.228Z,15.3
2017-09-11T12:34:52.948Z,15.4
2017-09-11T12:36:11.649Z,15.5
2017-09-11T12:37:30.374Z,15.5
2017-09-11T12:38:49.111Z,15.1
2017-09-11T12:40:07.779Z,15
2017-09-11T12:41:26.442Z,15.2
2017-09-11T12:42:45.104Z,15.4
2017-09-11T12:44:03.772Z,15.2
2017-09-11T12:45:22.481Z,15.2
2017-09-11T12:46:41.155Z,15.4
2017-09-11T12:47:59.818Z,15.2
2017-09-11T12:49:18.538Z,15.1
2017-09-11T12:50:37.267Z,15.2
2017-09-11T12:51:55.936Z,15.1
2017-09-11T12:53:14.638Z,14.9
2017-09-11T12:54:33.302Z,14.8
2017-09-11T12:55:52.031Z,15.1
2017-09-11T12:57:10.719Z,15.4
2017-09-11T12:58:29.385Z,15.6
2017-09-11T12:59:48.054Z,16
2017-09-11T13:01:06.728Z,16.4
2017-09-11T13:02:25.419Z,17.5
2017-09-11T13:03:44.078Z,17.9
2017-09-11T13:05:02.742Z,18.4
2017-09-11T13:06:21.465Z,19.2
2017-09-11T13:07:40.136Z,26
2017-09-11T13:08:58.858Z,29.4
2017-09-11T13:10:17.516Z,27
2017-09-11T13:11:36.178Z,24.2
2017-09-11T13:12:54.870Z,22.9
2017-09-11T13:14:13.536Z,21.9
2017-09-11T13:15:32.202Z,21
2017-09-11T13:16:50.886Z,19.7
2017-09-11T13:18:09.550Z,19.1
2017-09-11T13:19:28.269Z,18.2
2017-09-11T13:20:46.943Z,17.6
2017-09-11T13:22:05.634Z,17.3
2017-09-11T13:23:24.360Z,17.1
2017-09-11T13:24:43.029Z,16.7
2017-09-11T13:26:01.698Z,16
2017-09-11T13:27:20.409Z,15.7
2017-09-11T13:28:39.067Z,15.5
2017-09-11T13:29:57.768Z,15.5
2017-09-11T13:31:16.477Z,15.7
2017-09-11T13:32:35.162Z,16.2
2017-09-11T13:33:53.862Z,16
2017-09-11T13:35:12.522Z,16
2017-09-11T13:36:31.242Z,16
2017-09-11T13:37:49.973Z,15.7
2017-09-11T13:39:08.633Z,15.8
2017-09-11T13:40:27.294Z,15.8
2017-09-11T13:41:45.968Z,15.9
2017-09-11T13:43:04.644Z,15.9
2017-09-11T13:44:23.318Z,15.8
2017-09-11T13:45:42.038Z,16.2
2017-09-11T13:47:00.752Z,18.7
2017-09-11T13:48:19.445Z,23.1
2017-09-11T13:49:38.113Z,27.2
2017-09-11T13:50:56.781Z,30
2017-09-11T13:52:15.471Z,24.6
2017-09-11T13:53:34.151Z,22.8
2017-09-11T13:54:52.834Z,24.1
2017-09-11T13:56:11.505Z,28.9
2017-09-11T13:57:30.269Z,28.4
2017-09-11T13:58:48.964Z,29.2
2017-09-11T14:00:07.642Z,29
2017-09-11T14:01:26.303Z,30
2017-09-11T14:02:44.972Z,26.6
2017-09-11T14:04:03.718Z,24.5
2017-09-11T14:05:22.385Z,25.7
2017-09-11T14:06:41.049Z,24.3
2017-09-11T14:07:59.711Z,25.1
2017-09-11T14:09:18.401Z,27.8
2017-09-11T14:10:37.073Z,28.4
2017-09-11T14:11:55.740Z,30.2
2017-09-11T14:13:14.452Z,30
2017-09-11T14:14:33.135Z,32.8
2017-09-11T14:15:51.803Z,30.2
2017-09-11T14:17:10.464Z,32.4
2017-09-11T14:18:29.123Z,30.2
2017-09-11T14:19:47.864Z,26.4
2017-09-11T14:21:06.580Z,24.3
2017-09-11T14:22:25.272Z,24.9
2017-09-11T14:23:43.934Z,24.5
2017-09-11T14:25:02.895Z,25.4
2017-09-11T14:26:21.614Z,27.9
2017-09-11T14:27:40.315Z,29.8
2017-09-11T14:28:58.982Z,27.3
2017-09-11T14:30:17.716Z,24.6
2017-09-11T14:31:36.384Z,26.8
2017-09-11T14:32:55.132Z,32.6
2017-09-11T14:34:13.801Z,34.4
2017-09-11T14:35:32.508Z,34.6
2017-09-11T14:36:51.210Z,34.8
2017-09-11T14:38:09.873Z,34.9
2017-09-11T14:39:28.577Z,34.9
2017-09-11T14:40:47.260Z,34.9
2017-09-11T14:42:05.976Z,35
2017-09-11T14:43:24.665Z,35
2017-09-11T14:44:43.370Z,35
2017-09-11T14:46:02.052Z,35.1
2017-09-11T14:47:20.723Z,35
2017-09-11T14:48:39.433Z,35
2017-09-11T14:49:58.141Z,35
2017-09-11T14:51:16.849Z,35.2
2017-09-11T14:52:35.521Z,35.2
2017-09-11T14:53:54.198Z,35.2
2017-09-11T14:55:12.863Z,34.8
2017-09-11T14:56:31.543Z,34.7
2017-09-11T14:57:50.224Z,34.1
2017-09-11T14:59:08.920Z,30.3
2017-09-11T15:00:27.634Z,26.8
2017-09-11T15:01:46.323Z,24.4
2017-09-11T15:03:05.014Z,24.3
2017-09-11T15:04:23.680Z,23
2017-09-11T15:05:42.393Z,22.5
2017-09-11T15:07:01.074Z,21.8
2017-09-11T15:08:19.742Z,20.9
2017-09-11T15:09:38.439Z,20.4
2017-09-11T15:10:57.100Z,20.1
2017-09-11T15:12:15.777Z,19.9
2017-09-11T15:13:34.448Z,19.8
2017-09-11T15:14:53.123Z,19.5
2017-09-11T15:16:11.791Z,19.6
2017-09-11T15:17:30.459Z,19.8
2017-09-11T15:18:49.127Z,20.2
2017-09-11T15:20:07.793Z,19.8
2017-09-11T15:21:26.466Z,19.6
2017-09-11T15:22:45.164Z,19.2
2017-09-11T15:24:03.829Z,19.2
2017-09-11T15:25:22.484Z,19.1
2017-09-11T15:26:41.156Z,18.8
2017-09-11T15:27:59.907Z,18.5
2017-09-11T15:29:18.611Z,18.9
2017-09-11T15:30:37.313Z,19
2017-09-11T15:31:55.978Z,18.8
2017-09-11T15:33:14.665Z,18.8
2017-09-11T15:34:33.412Z,18.9
2017-09-11T15:35:52.107Z,19.1
2017-09-11T15:37:10.779Z,18.7
2017-09-11T15:38:29.455Z,18.5
2017-09-11T15:39:48.116Z,18.3
2017-09-11T15:41:06.790Z,18.1
2017-09-11T15:42:25.455Z,18.1
2017-09-11T15:43:44.131Z,17.7
2017-09-11T15:45:02.859Z,17.7
2017-09-11T15:46:21.537Z,17.9
2017-09-11T15:47:40.202Z,18
2017-09-11T15:48:58.898Z,18.3
2017-09-11T15:50:17.575Z,18.2
2017-09-11T15:51:36.241Z,18.1
2017-09-11T15:52:54.931Z,17.9
2017-09-11T15:54:13.597Z,17.9
2017-09-11T15:55:32.310Z,17.8
2017-09-11T15:56:50.980Z,18.1
2017-09-11T15:58:09.724Z,18.1
2017-09-11T15:59:28.407Z,17.8
2017-09-11T16:00:47.124Z,17.4
2017-09-11T16:02:05.781Z,17.1
2017-09-11T16:03:24.445Z,17.1
2017-09-11T16:04:43.167Z,16.8
2017-09-11T16:06:01.844Z,16.8
2017-09-11T16:07:20.504Z,16.5
2017-09-11T16:08:39.166Z,16.5
2017-09-11T16:09:57.841Z,16.6
2017-09-11T16:11:16.504Z,16.7
2017-09-11T16:12:35.174Z,16.8
2017-09-11T16:13:53.860Z,16.7
2017-09-11T16:15:12.568Z,16.6
2017-09-11T16:16:31.246Z,16.4
2017-09-11T16:17:49.926Z,16.3
2017-09-11T16:19:08.631Z,16
2017-09-11T16:20:27.318Z,15.8
2017-09-11T16:21:45.983Z,15.6
2017-09-11T16:23:04.665Z,15.5
2017-09-11T16:24:23.379Z,15.4
2017-09-11T16:25:42.094Z,15.1
2017-09-11T16:27:00.809Z,15.1
2017-09-11T16:28:19.488Z,15.1
2017-09-11T16:29:38.158Z,15.1
2017-09-11T16:30:56.833Z,15
2017-09-11T16:32:15.489Z,14.9
2017-09-11T16:33:34.156Z,14.9
2017-09-11T16:34:52.832Z,14.8
2017-09-11T16:36:11.508Z,14.8
2017-09-11T16:37:30.171Z,14.7
2017-09-11T16:38:48.842Z,14.6
2017-09-11T16:40:07.517Z,14.5
2017-09-11T16:41:26.195Z,14.4
2017-09-11T16:42:44.867Z,14.4
2017-09-11T16:44:03.572Z,14.5
2017-09-11T16:45:22.291Z,14.5
2017-09-11T16:46:41.001Z,14.4
2017-09-11T16:47:59.691Z,14.3
2017-09-11T16:49:18.392Z,14.2
2017-09-11T16:50:37.071Z,14.2
2017-09-11T16:51:55.741Z,14.2
2017-09-11T16:53:14.432Z,14.2
2017-09-11T16:54:33.103Z,14.4
2017-09-11T16:55:51.773Z,14.3
2017-09-11T16:57:10.458Z,14.2
2017-09-11T16:58:29.125Z,14
2017-09-11T16:59:47.811Z,13.9
2017-09-11T17:01:06.537Z,13.9
2017-09-11T17:02:25.219Z,13.9
2017-09-11T17:03:43.899Z,13.9
2017-09-11T17:05:02.570Z,13.7
2017-09-11T17:06:21.243Z,13.7
2017-09-11T17:07:39.964Z,13.6
2017-09-11T17:08:58.631Z,13.5
2017-09-11T17:10:17.348Z,13.4
2017-09-11T17:11:36.038Z,13.4
2017-09-11T17:12:54.719Z,13.5
2017-09-11T17:14:13.398Z,13.4
2017-09-11T17:15:32.115Z,13.3
2017-09-11T17:16:50.822Z,13.2
2017-09-11T17:18:09.539Z,13.2
2017-09-11T17:19:28.211Z,13.1
2017-09-11T17:20:46.907Z,12.9
2017-09-11T17:22:05.615Z,12.8
2017-09-11T17:23:24.327Z,12.8
2017-09-11T17:24:43.042Z,12.8
2017-09-11T17:26:01.711Z,12.8
2017-09-11T17:27:20.376Z,12.7
2017-09-11T17:28:39.058Z,12.6
2017-09-11T17:29:57.780Z,12.5
2017-09-11T17:31:16.454Z,12.5
2017-09-11T17:32:35.185Z,12.5